sensor_id;sensor_type;location;lat;lon;timestamp;temperature;humidity
28845;DHT22;15976;47.938;7.758;2024-03-25T00:00:23;7.90;69.20
28845;DHT22;15976;47.938;7.758;2024-03-25T00:02:51;7.90;69.20
28845;DHT22;15976;47.938;7.758;2024-03-25T00:05:17;7.90;69.30
28845;DHT22;15976;47.938;7.758;2024-03-25T00:07:49;7.80;69.40
28845;DHT22;15976;47.938;7.758;2024-03-25T00:10:15;7.90;69.50
28845;DHT22;15976;47.938;7.758;2024-03-25T00:12:42;7.80;69.50
28845;DHT22;15976;47.938;7.758;2024-03-25T00:15:09;7.80;69.70
28845;DHT22;15976;47.938;7.758;2024-03-25T00:17:35;7.80;69.70
28845;DHT22;15976;47.938;7.758;2024-03-25T00:20:01;7.80;69.80
28845;DHT22;15976;47.938;7.758;2024-03-25T00:22:27;7.70;69.90
28845;DHT22;15976;47.938;7.758;2024-03-25T00:24:54;7.70;70.00
28845;DHT22;15976;47.938;7.758;2024-03-25T00:27:20;7.60;70.10
28845;DHT22;15976;47.938;7.758;2024-03-25T00:29:46;7.60;71.00
28845;DHT22;15976;47.938;7.758;2024-03-25T00:32:12;7.50;70.20
28845;DHT22;15976;47.938;7.758;2024-03-25T00:34:40;7.40;70.30
28845;DHT22;15976;47.938;7.758;2024-03-25T00:37:07;7.50;70.50
28845;DHT22;15976;47.938;7.758;2024-03-25T00:39:35;7.40;70.50
28845;DHT22;15976;47.938;7.758;2024-03-25T00:42:03;7.50;70.40
28845;DHT22;15976;47.938;7.758;2024-03-25T00:44:31;7.50;70.30
28845;DHT22;15976;47.938;7.758;2024-03-25T00:46:57;7.60;70.20
28845;DHT22;15976;47.938;7.758;2024-03-25T00:49:23;7.60;70.10
28845;DHT22;15976;47.938;7.758;2024-03-25T00:51:49;7.60;69.80
28845;DHT22;15976;47.938;7.758;2024-03-25T00:54:14;7.60;69.70
28845;DHT22;15976;47.938;7.758;2024-03-25T00:56:42;7.60;69.60
28845;DHT22;15976;47.938;7.758;2024-03-25T00:59:09;7.50;69.80
28845;DHT22;15976;47.938;7.758;2024-03-25T01:01:35;7.50;69.90
28845;DHT22;15976;47.938;7.758;2024-03-25T01:04:04;7.50;70.00
28845;DHT22;15976;47.938;7.758;2024-03-25T01:06:30;7.40;70.20
28845;DHT22;15976;47.938;7.758;2024-03-25T01:08:57;7.40;70.30
28845;DHT22;15976;47.938;7.758;2024-03-25T01:11:23;7.30;70.40
28845;DHT22;15976;47.938;7.758;2024-03-25T01:13:49;7.30;70.50
28845;DHT22;15976;47.938;7.758;2024-03-25T01:16:15;7.20;70.50
28845;DHT22;15976;47.938;7.758;2024-03-25T01:18:41;7.30;70.70
28845;DHT22;15976;47.938;7.758;2024-03-25T01:21:07;7.20;70.80
28845;DHT22;15976;47.938;7.758;2024-03-25T01:23:33;7.30;71.10
28845;DHT22;15976;47.938;7.758;2024-03-25T01:25:59;7.30;70.90
28845;DHT22;15976;47.938;7.758;2024-03-25T01:28:25;7.40;70.90
28845;DHT22;15976;47.938;7.758;2024-03-25T01:30:52;7.40;70.70
28845;DHT22;15976;47.938;7.758;2024-03-25T01:33:19;7.50;70.50
28845;DHT22;15976;47.938;7.758;2024-03-25T01:35:46;7.50;70.30
28845;DHT22;15976;47.938;7.758;2024-03-25T01:38:13;7.50;70.10
28845;DHT22;15976;47.938;7.758;2024-03-25T01:40:42;7.60;70.20
28845;DHT22;15976;47.938;7.758;2024-03-25T01:43:09;7.60;70.10
28845;DHT22;15976;47.938;7.758;2024-03-25T01:45:35;7.60;70.10
28845;DHT22;15976;47.938;7.758;2024-03-25T01:48:06;7.60;70.20
28845;DHT22;15976;47.938;7.758;2024-03-25T01:50:40;7.60;70.00
28845;DHT22;15976;47.938;7.758;2024-03-25T01:53:09;7.60;69.90
28845;DHT22;15976;47.938;7.758;2024-03-25T01:55:37;7.70;69.90
28845;DHT22;15976;47.938;7.758;2024-03-25T01:58:07;7.70;69.80
28845;DHT22;15976;47.938;7.758;2024-03-25T02:00:35;7.70;69.70
28845;DHT22;15976;47.938;7.758;2024-03-25T02:03:01;7.70;69.90
28845;DHT22;15976;47.938;7.758;2024-03-25T02:05:27;7.70;70.10
28845;DHT22;15976;47.938;7.758;2024-03-25T02:07:53;7.60;70.20
28845;DHT22;15976;47.938;7.758;2024-03-25T02:10:21;7.70;70.70
28845;DHT22;15976;47.938;7.758;2024-03-25T02:12:47;7.60;70.70
28845;DHT22;15976;47.938;7.758;2024-03-25T02:15:14;7.70;70.80
28845;DHT22;15976;47.938;7.758;2024-03-25T02:17:41;7.60;71.00
28845;DHT22;15976;47.938;7.758;2024-03-25T02:20:09;7.60;71.00
28845;DHT22;15976;47.938;7.758;2024-03-25T02:22:36;7.60;71.20
28845;DHT22;15976;47.938;7.758;2024-03-25T02:25:06;7.60;71.30
28845;DHT22;15976;47.938;7.758;2024-03-25T02:27:35;7.60;71.10
28845;DHT22;15976;47.938;7.758;2024-03-25T02:30:12;7.60;71.20
28845;DHT22;15976;47.938;7.758;2024-03-25T02:32:39;7.60;71.20
28845;DHT22;15976;47.938;7.758;2024-03-25T02:35:08;7.60;71.20
28845;DHT22;15976;47.938;7.758;2024-03-25T02:37:36;7.60;71.30
28845;DHT22;15976;47.938;7.758;2024-03-25T02:40:04;7.50;71.40
28845;DHT22;15976;47.938;7.758;2024-03-25T02:42:36;7.50;71.50
28845;DHT22;15976;47.938;7.758;2024-03-25T02:45:04;7.50;71.60
28845;DHT22;15976;47.938;7.758;2024-03-25T02:47:32;7.50;71.70
28845;DHT22;15976;47.938;7.758;2024-03-25T02:49:58;7.50;71.90
28845;DHT22;15976;47.938;7.758;2024-03-25T02:52:24;7.50;71.80
28845;DHT22;15976;47.938;7.758;2024-03-25T02:54:50;7.50;71.80
28845;DHT22;15976;47.938;7.758;2024-03-25T02:57:17;7.50;71.80
28845;DHT22;15976;47.938;7.758;2024-03-25T02:59:43;7.50;71.80
28845;DHT22;15976;47.938;7.758;2024-03-25T03:02:09;7.40;71.60
28845;DHT22;15976;47.938;7.758;2024-03-25T03:04:36;7.40;71.60
28845;DHT22;15976;47.938;7.758;2024-03-25T03:07:02;7.30;71.60
28845;DHT22;15976;47.938;7.758;2024-03-25T03:09:29;7.30;71.80
28845;DHT22;15976;47.938;7.758;2024-03-25T03:11:54;7.20;71.60
28845;DHT22;15976;47.938;7.758;2024-03-25T03:14:21;7.10;71.60
28845;DHT22;15976;47.938;7.758;2024-03-25T03:16:47;7.00;71.40
28845;DHT22;15976;47.938;7.758;2024-03-25T03:19:13;6.80;71.50
28845;DHT22;15976;47.938;7.758;2024-03-25T03:21:38;6.70;71.80
28845;DHT22;15976;47.938;7.758;2024-03-25T03:24:05;6.70;72.20
28845;DHT22;15976;47.938;7.758;2024-03-25T03:26:31;6.60;72.20
28845;DHT22;15976;47.938;7.758;2024-03-25T03:28:57;6.60;72.30
28845;DHT22;15976;47.938;7.758;2024-03-25T03:31:24;6.60;72.30
28845;DHT22;15976;47.938;7.758;2024-03-25T03:33:51;6.50;72.40
28845;DHT22;15976;47.938;7.758;2024-03-25T03:36:21;6.50;72.50
28845;DHT22;15976;47.938;7.758;2024-03-25T03:38:51;6.50;72.70
28845;DHT22;15976;47.938;7.758;2024-03-25T03:41:19;6.50;72.60
28845;DHT22;15976;47.938;7.758;2024-03-25T03:43:46;6.60;73.60
28845;DHT22;15976;47.938;7.758;2024-03-25T03:46:12;6.50;72.80
28845;DHT22;15976;47.938;7.758;2024-03-25T03:48:39;6.60;72.80
28845;DHT22;15976;47.938;7.758;2024-03-25T03:51:05;6.50;72.60
28845;DHT22;15976;47.938;7.758;2024-03-25T03:53:32;6.50;72.70
28845;DHT22;15976;47.938;7.758;2024-03-25T03:56:01;6.40;72.80
28845;DHT22;15976;47.938;7.758;2024-03-25T03:58:31;6.40;72.80
28845;DHT22;15976;47.938;7.758;2024-03-25T04:00:57;6.40;72.70
28845;DHT22;15976;47.938;7.758;2024-03-25T04:03:24;6.40;72.80
28845;DHT22;15976;47.938;7.758;2024-03-25T04:05:50;6.30;72.60
28845;DHT22;15976;47.938;7.758;2024-03-25T04:08:16;6.30;72.60
28845;DHT22;15976;47.938;7.758;2024-03-25T04:10:44;6.30;72.80
28845;DHT22;15976;47.938;7.758;2024-03-25T04:13:10;6.30;72.80
28845;DHT22;15976;47.938;7.758;2024-03-25T04:15:37;6.20;73.00
28845;DHT22;15976;47.938;7.758;2024-03-25T04:18:04;6.20;73.00
28845;DHT22;15976;47.938;7.758;2024-03-25T04:20:37;6.10;73.20
28845;DHT22;15976;47.938;7.758;2024-03-25T04:23:04;6.10;73.20
28845;DHT22;15976;47.938;7.758;2024-03-25T04:25:30;6.00;73.20
28845;DHT22;15976;47.938;7.758;2024-03-25T04:27:56;6.00;73.20
28845;DHT22;15976;47.938;7.758;2024-03-25T04:30:23;6.00;73.20
28845;DHT22;15976;47.938;7.758;2024-03-25T04:32:49;6.00;73.40
28845;DHT22;15976;47.938;7.758;2024-03-25T04:35:15;6.00;73.50
28845;DHT22;15976;47.938;7.758;2024-03-25T04:37:41;6.00;73.50
28845;DHT22;15976;47.938;7.758;2024-03-25T04:40:07;5.90;73.40
28845;DHT22;15976;47.938;7.758;2024-03-25T04:42:35;5.90;73.60
28845;DHT22;15976;47.938;7.758;2024-03-25T04:45:02;5.90;73.70
28845;DHT22;15976;47.938;7.758;2024-03-25T04:47:28;5.90;73.80
28845;DHT22;15976;47.938;7.758;2024-03-25T04:49:57;5.80;73.70
28845;DHT22;15976;47.938;7.758;2024-03-25T04:52:23;5.80;73.90
28845;DHT22;15976;47.938;7.758;2024-03-25T04:54:52;5.80;74.00
28845;DHT22;15976;47.938;7.758;2024-03-25T04:57:18;5.80;74.20
28845;DHT22;15976;47.938;7.758;2024-03-25T04:59:44;5.80;74.20
28845;DHT22;15976;47.938;7.758;2024-03-25T05:02:11;5.80;74.30
28845;DHT22;15976;47.938;7.758;2024-03-25T05:04:37;5.70;74.10
28845;DHT22;15976;47.938;7.758;2024-03-25T05:07:03;5.70;74.20
28845;DHT22;15976;47.938;7.758;2024-03-25T05:09:30;5.70;74.20
28845;DHT22;15976;47.938;7.758;2024-03-25T05:11:57;5.70;74.30
28845;DHT22;15976;47.938;7.758;2024-03-25T05:14:24;5.70;74.20
28845;DHT22;15976;47.938;7.758;2024-03-25T05:16:50;5.60;74.30
28845;DHT22;15976;47.938;7.758;2024-03-25T05:19:18;5.60;74.40
28845;DHT22;15976;47.938;7.758;2024-03-25T05:21:44;5.60;74.50
28845;DHT22;15976;47.938;7.758;2024-03-25T05:24:11;5.60;74.70
28845;DHT22;15976;47.938;7.758;2024-03-25T05:26:37;5.60;74.60
28845;DHT22;15976;47.938;7.758;2024-03-25T05:29:05;5.60;74.70
28845;DHT22;15976;47.938;7.758;2024-03-25T05:31:32;5.60;74.70
28845;DHT22;15976;47.938;7.758;2024-03-25T05:33:58;5.60;74.80
28845;DHT22;15976;47.938;7.758;2024-03-25T05:36:27;5.60;74.80
28845;DHT22;15976;47.938;7.758;2024-03-25T05:38:53;5.50;74.80
28845;DHT22;15976;47.938;7.758;2024-03-25T05:41:18;5.60;74.80
28845;DHT22;15976;47.938;7.758;2024-03-25T05:43:45;5.60;74.90
28845;DHT22;15976;47.938;7.758;2024-03-25T05:46:11;5.60;74.60
28845;DHT22;15976;47.938;7.758;2024-03-25T05:48:37;5.70;74.50
28845;DHT22;15976;47.938;7.758;2024-03-25T05:51:04;5.70;74.40
28845;DHT22;15976;47.938;7.758;2024-03-25T05:53:33;5.70;74.40
28845;DHT22;15976;47.938;7.758;2024-03-25T05:56:00;5.70;74.60
28845;DHT22;15976;47.938;7.758;2024-03-25T05:58:26;5.70;74.60
28845;DHT22;15976;47.938;7.758;2024-03-25T06:00:52;5.70;74.60
28845;DHT22;15976;47.938;7.758;2024-03-25T06:03:19;5.80;74.70
28845;DHT22;15976;47.938;7.758;2024-03-25T06:05:46;5.70;74.60
28845;DHT22;15976;47.938;7.758;2024-03-25T06:08:12;5.80;74.60
28845;DHT22;15976;47.938;7.758;2024-03-25T06:10:50;5.80;74.60
28845;DHT22;15976;47.938;7.758;2024-03-25T06:13:20;5.80;74.60
28845;DHT22;15976;47.938;7.758;2024-03-25T06:15:46;5.90;74.60
28845;DHT22;15976;47.938;7.758;2024-03-25T06:18:12;5.80;74.60
28845;DHT22;15976;47.938;7.758;2024-03-25T06:20:38;5.90;74.10
28845;DHT22;15976;47.938;7.758;2024-03-25T06:23:05;5.90;73.70
28845;DHT22;15976;47.938;7.758;2024-03-25T06:25:31;5.90;73.30
28845;DHT22;15976;47.938;7.758;2024-03-25T06:27:57;5.90;73.10
28845;DHT22;15976;47.938;7.758;2024-03-25T06:30:23;6.00;73.10
28845;DHT22;15976;47.938;7.758;2024-03-25T06:33:08;6.00;72.80
28845;DHT22;15976;47.938;7.758;2024-03-25T06:35:52;6.00;72.50
28845;DHT22;15976;47.938;7.758;2024-03-25T06:38:18;6.00;72.50
28845;DHT22;15976;47.938;7.758;2024-03-25T06:40:47;6.10;72.40
28845;DHT22;15976;47.938;7.758;2024-03-25T06:43:13;6.20;72.20
28845;DHT22;15976;47.938;7.758;2024-03-25T06:45:42;6.20;71.60
28845;DHT22;15976;47.938;7.758;2024-03-25T06:48:08;6.30;71.20
28845;DHT22;15976;47.938;7.758;2024-03-25T06:50:34;6.40;70.90
28845;DHT22;15976;47.938;7.758;2024-03-25T06:53:01;6.40;70.40
28845;DHT22;15976;47.938;7.758;2024-03-25T06:55:27;6.40;70.30
28845;DHT22;15976;47.938;7.758;2024-03-25T06:57:54;6.40;70.50
28845;DHT22;15976;47.938;7.758;2024-03-25T07:00:20;6.50;70.70
28845;DHT22;15976;47.938;7.758;2024-03-25T07:02:51;6.60;70.80
28845;DHT22;15976;47.938;7.758;2024-03-25T07:05:17;6.60;70.90
28845;DHT22;15976;47.938;7.758;2024-03-25T07:07:44;6.70;70.70
28845;DHT22;15976;47.938;7.758;2024-03-25T07:10:10;6.80;70.90
28845;DHT22;15976;47.938;7.758;2024-03-25T07:12:38;7.30;71.50
28845;DHT22;15976;47.938;7.758;2024-03-25T07:15:04;8.20;69.10
28845;DHT22;15976;47.938;7.758;2024-03-25T07:17:31;9.10;66.10
28845;DHT22;15976;47.938;7.758;2024-03-25T07:19:58;10.00;63.00
28845;DHT22;15976;47.938;7.758;2024-03-25T07:22:24;10.80;60.20
28845;DHT22;15976;47.938;7.758;2024-03-25T07:24:50;11.40;58.60
28845;DHT22;15976;47.938;7.758;2024-03-25T07:27:24;11.90;57.20
28845;DHT22;15976;47.938;7.758;2024-03-25T07:29:50;12.40;56.30
28845;DHT22;15976;47.938;7.758;2024-03-25T07:32:17;12.80;55.50
28845;DHT22;15976;47.938;7.758;2024-03-25T07:34:43;13.20;54.60
28845;DHT22;15976;47.938;7.758;2024-03-25T07:37:09;13.60;53.80
28845;DHT22;15976;47.938;7.758;2024-03-25T07:39:35;14.00;52.80
28845;DHT22;15976;47.938;7.758;2024-03-25T07:42:01;14.30;51.80
28845;DHT22;15976;47.938;7.758;2024-03-25T07:44:30;14.60;51.00
28845;DHT22;15976;47.938;7.758;2024-03-25T07:46:56;14.90;50.40
28845;DHT22;15976;47.938;7.758;2024-03-25T07:49:22;15.20;50.20
28845;DHT22;15976;47.938;7.758;2024-03-25T07:51:48;15.50;49.80
28845;DHT22;15976;47.938;7.758;2024-03-25T07:54:14;15.70;49.20
28845;DHT22;15976;47.938;7.758;2024-03-25T07:56:42;16.00;48.70
28845;DHT22;15976;47.938;7.758;2024-03-25T07:59:08;16.30;48.10
28845;DHT22;15976;47.938;7.758;2024-03-25T08:01:34;16.60;47.50
28845;DHT22;15976;47.938;7.758;2024-03-25T08:04:01;16.90;46.70
28845;DHT22;15976;47.938;7.758;2024-03-25T08:06:28;17.10;46.00
28845;DHT22;15976;47.938;7.758;2024-03-25T08:08:54;17.50;45.30
28845;DHT22;15976;47.938;7.758;2024-03-25T08:11:20;17.80;44.30
28845;DHT22;15976;47.938;7.758;2024-03-25T08:13:46;18.00;43.40
28845;DHT22;15976;47.938;7.758;2024-03-25T08:16:12;18.30;42.70
28845;DHT22;15976;47.938;7.758;2024-03-25T08:18:39;18.60;42.10
28845;DHT22;15976;47.938;7.758;2024-03-25T08:21:05;19.00;41.60
28845;DHT22;15976;47.938;7.758;2024-03-25T08:23:32;19.40;40.80
28845;DHT22;15976;47.938;7.758;2024-03-25T08:25:59;19.70;40.10
28845;DHT22;15976;47.938;7.758;2024-03-25T08:28:26;19.90;39.50
28845;DHT22;15976;47.938;7.758;2024-03-25T08:30:52;20.20;38.90
28845;DHT22;15976;47.938;7.758;2024-03-25T08:33:21;20.30;38.20
28845;DHT22;15976;47.938;7.758;2024-03-25T08:35:53;20.40;38.10
28845;DHT22;15976;47.938;7.758;2024-03-25T08:38:22;20.50;37.80
28845;DHT22;15976;47.938;7.758;2024-03-25T08:40:48;20.50;37.30
28845;DHT22;15976;47.938;7.758;2024-03-25T08:43:17;20.50;37.10
28845;DHT22;15976;47.938;7.758;2024-03-25T08:45:46;20.50;36.90
28845;DHT22;15976;47.938;7.758;2024-03-25T08:48:12;20.40;36.90
28845;DHT22;15976;47.938;7.758;2024-03-25T08:50:38;20.30;36.80
28845;DHT22;15976;47.938;7.758;2024-03-25T08:53:05;20.00;37.00
28845;DHT22;15976;47.938;7.758;2024-03-25T08:55:43;19.70;36.70
28845;DHT22;15976;47.938;7.758;2024-03-25T08:58:12;19.40;36.80
28845;DHT22;15976;47.938;7.758;2024-03-25T09:00:43;19.00;36.70
28845;DHT22;15976;47.938;7.758;2024-03-25T09:03:14;18.70;37.20
28845;DHT22;15976;47.938;7.758;2024-03-25T09:05:41;18.40;37.50
28845;DHT22;15976;47.938;7.758;2024-03-25T09:08:23;18.10;37.30
28845;DHT22;15976;47.938;7.758;2024-03-25T09:11:04;17.70;37.70
28845;DHT22;15976;47.938;7.758;2024-03-25T09:13:32;17.40;38.00
28845;DHT22;15976;47.938;7.758;2024-03-25T09:15:59;17.30;38.40
28845;DHT22;15976;47.938;7.758;2024-03-25T09:18:25;17.20;38.10
28845;DHT22;15976;47.938;7.758;2024-03-25T09:20:54;17.00;38.10
28845;DHT22;15976;47.938;7.758;2024-03-25T09:23:21;17.00;38.10
28845;DHT22;15976;47.938;7.758;2024-03-25T09:26:11;16.90;38.00
28845;DHT22;15976;47.938;7.758;2024-03-25T09:28:37;16.90;37.70
28845;DHT22;15976;47.938;7.758;2024-03-25T09:31:04;16.80;38.10
28845;DHT22;15976;47.938;7.758;2024-03-25T09:33:31;16.80;38.20
28845;DHT22;15976;47.938;7.758;2024-03-25T09:36:01;16.80;38.10
28845;DHT22;15976;47.938;7.758;2024-03-25T09:38:27;16.70;37.90
28845;DHT22;15976;47.938;7.758;2024-03-25T09:40:53;16.60;37.70
28845;DHT22;15976;47.938;7.758;2024-03-25T09:43:33;16.40;37.50
28845;DHT22;15976;47.938;7.758;2024-03-25T09:46:06;16.30;37.50
28845;DHT22;15976;47.938;7.758;2024-03-25T09:48:36;16.20;37.80
28845;DHT22;15976;47.938;7.758;2024-03-25T09:51:02;16.30;37.40
28845;DHT22;15976;47.938;7.758;2024-03-25T09:53:29;16.20;37.50
28845;DHT22;15976;47.938;7.758;2024-03-25T09:55:56;16.30;37.20
28845;DHT22;15976;47.938;7.758;2024-03-25T09:58:24;16.30;36.90
28845;DHT22;15976;47.938;7.758;2024-03-25T10:00:52;16.30;36.60
28845;DHT22;15976;47.938;7.758;2024-03-25T10:03:18;16.30;36.40
28845;DHT22;15976;47.938;7.758;2024-03-25T10:05:44;16.30;36.50
28845;DHT22;15976;47.938;7.758;2024-03-25T10:08:10;16.30;36.00
28845;DHT22;15976;47.938;7.758;2024-03-25T10:10:36;16.30;35.90
28845;DHT22;15976;47.938;7.758;2024-03-25T10:13:04;16.40;35.80
28845;DHT22;15976;47.938;7.758;2024-03-25T10:15:32;16.40;35.90
28845;DHT22;15976;47.938;7.758;2024-03-25T10:17:59;16.50;35.80
28845;DHT22;15976;47.938;7.758;2024-03-25T10:20:25;16.50;35.70
28845;DHT22;15976;47.938;7.758;2024-03-25T10:22:51;16.50;35.50
28845;DHT22;15976;47.938;7.758;2024-03-25T10:25:28;16.40;35.90
28845;DHT22;15976;47.938;7.758;2024-03-25T10:27:58;16.40;36.10
28845;DHT22;15976;47.938;7.758;2024-03-25T10:30:27;16.50;36.40
28845;DHT22;15976;47.938;7.758;2024-03-25T10:33:03;16.40;36.50
28845;DHT22;15976;47.938;7.758;2024-03-25T10:35:31;16.40;37.20
28845;DHT22;15976;47.938;7.758;2024-03-25T10:38:00;16.30;37.40
28845;DHT22;15976;47.938;7.758;2024-03-25T10:40:28;16.20;37.40
28845;DHT22;15976;47.938;7.758;2024-03-25T10:43:07;16.10;37.00
28845;DHT22;15976;47.938;7.758;2024-03-25T10:45:35;16.00;36.80
28845;DHT22;15976;47.938;7.758;2024-03-25T10:50:55;15.90;36.80
28845;DHT22;15976;47.938;7.758;2024-03-25T10:53:22;16.00;37.00
28845;DHT22;15976;47.938;7.758;2024-03-25T10:55:53;16.10;37.20
28845;DHT22;15976;47.938;7.758;2024-03-25T10:58:22;16.20;37.30
28845;DHT22;15976;47.938;7.758;2024-03-25T11:00:49;16.40;37.30
28845;DHT22;15976;47.938;7.758;2024-03-25T11:03:16;16.50;37.20
28845;DHT22;15976;47.938;7.758;2024-03-25T11:05:43;16.60;37.20
28845;DHT22;15976;47.938;7.758;2024-03-25T11:08:13;16.70;37.20
28845;DHT22;15976;47.938;7.758;2024-03-25T11:10:44;16.70;37.00
28845;DHT22;15976;47.938;7.758;2024-03-25T11:13:17;16.80;36.60
28845;DHT22;15976;47.938;7.758;2024-03-25T11:15:49;16.90;36.30
28845;DHT22;15976;47.938;7.758;2024-03-25T11:18:24;17.10;37.10
28845;DHT22;15976;47.938;7.758;2024-03-25T11:21:05;17.10;36.60
28845;DHT22;15976;47.938;7.758;2024-03-25T11:23:42;17.10;36.00
28845;DHT22;15976;47.938;7.758;2024-03-25T11:26:22;17.10;36.00
28845;DHT22;15976;47.938;7.758;2024-03-25T11:28:50;17.00;35.90
28845;DHT22;15976;47.938;7.758;2024-03-25T11:31:17;16.90;36.30
28845;DHT22;15976;47.938;7.758;2024-03-25T11:33:45;16.70;36.40
28845;DHT22;15976;47.938;7.758;2024-03-25T11:36:11;16.60;36.40
28845;DHT22;15976;47.938;7.758;2024-03-25T11:38:37;16.50;36.40
28845;DHT22;15976;47.938;7.758;2024-03-25T11:41:06;16.60;36.30
28845;DHT22;15976;47.938;7.758;2024-03-25T11:43:32;16.70;36.20
28845;DHT22;15976;47.938;7.758;2024-03-25T11:45:58;16.80;35.90
28845;DHT22;15976;47.938;7.758;2024-03-25T11:48:25;16.90;35.60
28845;DHT22;15976;47.938;7.758;2024-03-25T11:50:51;17.00;36.20
28845;DHT22;15976;47.938;7.758;2024-03-25T11:53:17;17.10;35.70
28845;DHT22;15976;47.938;7.758;2024-03-25T11:55:47;17.20;35.60
28845;DHT22;15976;47.938;7.758;2024-03-25T11:58:15;17.30;35.30
28845;DHT22;15976;47.938;7.758;2024-03-25T12:00:45;17.50;35.50
28845;DHT22;15976;47.938;7.758;2024-03-25T12:03:15;17.60;35.40
28845;DHT22;15976;47.938;7.758;2024-03-25T12:05:44;17.70;35.30
28845;DHT22;15976;47.938;7.758;2024-03-25T12:08:11;17.70;35.50
28845;DHT22;15976;47.938;7.758;2024-03-25T12:10:38;17.90;35.60
28845;DHT22;15976;47.938;7.758;2024-03-25T12:13:25;17.90;35.40
28845;DHT22;15976;47.938;7.758;2024-03-25T12:15:52;17.90;35.30
28845;DHT22;15976;47.938;7.758;2024-03-25T12:18:18;18.00;35.40
28845;DHT22;15976;47.938;7.758;2024-03-25T12:20:45;18.10;35.50
28845;DHT22;15976;47.938;7.758;2024-03-25T12:23:11;18.10;35.30
28845;DHT22;15976;47.938;7.758;2024-03-25T12:25:37;18.20;35.00
28845;DHT22;15976;47.938;7.758;2024-03-25T12:28:09;18.30;34.70
28845;DHT22;15976;47.938;7.758;2024-03-25T12:30:54;18.30;34.50
28845;DHT22;15976;47.938;7.758;2024-03-25T12:33:22;18.40;34.20
28845;DHT22;15976;47.938;7.758;2024-03-25T12:35:50;18.50;34.40
28845;DHT22;15976;47.938;7.758;2024-03-25T12:38:25;18.50;34.20
28845;DHT22;15976;47.938;7.758;2024-03-25T12:41:03;18.50;33.90
28845;DHT22;15976;47.938;7.758;2024-03-25T12:43:32;18.60;34.00
28845;DHT22;15976;47.938;7.758;2024-03-25T12:45:59;18.70;34.10
28845;DHT22;15976;47.938;7.758;2024-03-25T12:48:25;18.70;34.10
28845;DHT22;15976;47.938;7.758;2024-03-25T12:50:53;18.80;34.00
28845;DHT22;15976;47.938;7.758;2024-03-25T12:53:19;18.90;33.70
28845;DHT22;15976;47.938;7.758;2024-03-25T12:55:46;18.90;33.10
28845;DHT22;15976;47.938;7.758;2024-03-25T12:58:12;19.00;33.00
28845;DHT22;15976;47.938;7.758;2024-03-25T13:00:39;19.00;33.20
28845;DHT22;15976;47.938;7.758;2024-03-25T13:03:07;19.00;33.10
28845;DHT22;15976;47.938;7.758;2024-03-25T13:05:34;19.00;33.10
28845;DHT22;15976;47.938;7.758;2024-03-25T13:08:01;19.00;33.20
28845;DHT22;15976;47.938;7.758;2024-03-25T13:10:30;19.10;33.10
28845;DHT22;15976;47.938;7.758;2024-03-25T13:12:56;19.10;33.20
28845;DHT22;15976;47.938;7.758;2024-03-25T13:15:28;19.30;33.60
28845;DHT22;15976;47.938;7.758;2024-03-25T13:17:57;19.30;33.60
28845;DHT22;15976;47.938;7.758;2024-03-25T13:20:24;19.30;33.60
28845;DHT22;15976;47.938;7.758;2024-03-25T13:22:54;19.40;33.00
28845;DHT22;15976;47.938;7.758;2024-03-25T13:25:31;19.60;32.50
28845;DHT22;15976;47.938;7.758;2024-03-25T13:27:57;21.10;32.30
28845;DHT22;15976;47.938;7.758;2024-03-25T13:30:24;23.30;30.30
28845;DHT22;15976;47.938;7.758;2024-03-25T13:32:52;25.50;28.50
28845;DHT22;15976;47.938;7.758;2024-03-25T13:35:20;27.10;26.90
28845;DHT22;15976;47.938;7.758;2024-03-25T13:37:47;28.50;25.70
28845;DHT22;15976;47.938;7.758;2024-03-25T13:40:14;29.80;24.90
28845;DHT22;15976;47.938;7.758;2024-03-25T13:42:40;30.90;24.20
28845;DHT22;15976;47.938;7.758;2024-03-25T13:45:06;31.80;23.20
28845;DHT22;15976;47.938;7.758;2024-03-25T13:47:32;32.40;22.80
28845;DHT22;15976;47.938;7.758;2024-03-25T13:52:28;33.10;21.40
28845;DHT22;15976;47.938;7.758;2024-03-25T13:54:56;33.50;21.50
28845;DHT22;15976;47.938;7.758;2024-03-25T13:57:23;33.80;21.20
28845;DHT22;15976;47.938;7.758;2024-03-25T13:59:59;34.30;21.30
28845;DHT22;15976;47.938;7.758;2024-03-25T14:02:26;34.90;20.60
28845;DHT22;15976;47.938;7.758;2024-03-25T14:04:52;35.30;20.50
28845;DHT22;15976;47.938;7.758;2024-03-25T14:07:18;35.50;20.10
28845;DHT22;15976;47.938;7.758;2024-03-25T14:09:45;35.70;19.60
28845;DHT22;15976;47.938;7.758;2024-03-25T14:12:11;35.80;19.40
28845;DHT22;15976;47.938;7.758;2024-03-25T14:14:37;36.00;19.50
28845;DHT22;15976;47.938;7.758;2024-03-25T14:17:04;36.30;19.00
28845;DHT22;15976;47.938;7.758;2024-03-25T14:19:32;36.50;18.90
28845;DHT22;15976;47.938;7.758;2024-03-25T14:21:58;36.70;18.80
28845;DHT22;15976;47.938;7.758;2024-03-25T14:24:24;36.80;18.40
28845;DHT22;15976;47.938;7.758;2024-03-25T14:26:51;36.80;18.10
28845;DHT22;15976;47.938;7.758;2024-03-25T14:29:18;36.80;18.00
28845;DHT22;15976;47.938;7.758;2024-03-25T14:31:45;36.80;18.10
28845;DHT22;15976;47.938;7.758;2024-03-25T14:34:12;36.80;18.20
28845;DHT22;15976;47.938;7.758;2024-03-25T14:36:39;36.50;17.80
28845;DHT22;15976;47.938;7.758;2024-03-25T14:39:08;36.40;18.00
28845;DHT22;15976;47.938;7.758;2024-03-25T14:41:40;36.50;18.30
28845;DHT22;15976;47.938;7.758;2024-03-25T14:44:06;36.60;18.00
28845;DHT22;15976;47.938;7.758;2024-03-25T14:46:32;36.40;17.90
28845;DHT22;15976;47.938;7.758;2024-03-25T14:48:58;36.30;17.80
28845;DHT22;15976;47.938;7.758;2024-03-25T14:51:24;36.10;17.90
28845;DHT22;15976;47.938;7.758;2024-03-25T14:53:50;36.00;18.40
28845;DHT22;15976;47.938;7.758;2024-03-25T14:56:18;35.80;17.70
28845;DHT22;15976;47.938;7.758;2024-03-25T14:58:45;35.70;17.90
28845;DHT22;15976;47.938;7.758;2024-03-25T15:01:12;35.60;17.80
28845;DHT22;15976;47.938;7.758;2024-03-25T15:03:38;35.50;18.10
28845;DHT22;15976;47.938;7.758;2024-03-25T15:06:04;35.40;18.00
28845;DHT22;15976;47.938;7.758;2024-03-25T15:08:32;35.30;18.00
28845;DHT22;15976;47.938;7.758;2024-03-25T15:11:00;35.20;17.90
28845;DHT22;15976;47.938;7.758;2024-03-25T15:13:29;34.90;17.80
28845;DHT22;15976;47.938;7.758;2024-03-25T15:15:57;34.80;18.10
28845;DHT22;15976;47.938;7.758;2024-03-25T15:18:23;34.60;18.10
28845;DHT22;15976;47.938;7.758;2024-03-25T15:21:02;34.30;18.40
28845;DHT22;15976;47.938;7.758;2024-03-25T15:23:29;34.00;18.50
28845;DHT22;15976;47.938;7.758;2024-03-25T15:25:55;33.70;19.00
28845;DHT22;15976;47.938;7.758;2024-03-25T15:28:21;33.40;19.00
28845;DHT22;15976;47.938;7.758;2024-03-25T15:30:47;33.40;18.80
28845;DHT22;15976;47.938;7.758;2024-03-25T15:33:14;33.20;18.80
28845;DHT22;15976;47.938;7.758;2024-03-25T15:35:44;32.90;18.80
28845;DHT22;15976;47.938;7.758;2024-03-25T15:38:10;32.50;19.00
28845;DHT22;15976;47.938;7.758;2024-03-25T15:40:38;31.90;19.30
28845;DHT22;15976;47.938;7.758;2024-03-25T15:43:05;31.40;19.50
28845;DHT22;15976;47.938;7.758;2024-03-25T15:45:32;31.10;19.80